Time;durP1;ratioP1;P1;durP2;ratioP2;P2;SDS_P1;SDS_P2;PMS_P1;PMS_P2;Temp;Humidity;BMP_temperature;BMP_pressure;BME280_temperature;BME280_humidity;BME280_pressure;Samples;Min_cycle;Max_cycle;Signal;HPM_P1;HPM_P2
2022/10/22 00:00:26;;;;;;;7.45;4.93;;;12.50;99.90;;;;;;4981219;28;20049;-82
2022/10/22 00:02:52;;;;;;;11.45;5.25;;;12.50;99.90;;;;;;4983640;28;20521;-82
2022/10/22 00:05:17;;;;;;;12.63;5.85;;;12.60;99.90;;;;;;4996775;28;20151;-82
2022/10/22 00:07:43;;;;;;;8.77;5.45;;;12.60;99.90;;;;;;4968552;28;20046;-82
2022/10/22 00:10:09;;;;;;;10.02;5.60;;;12.60;99.90;;;;;;4986066;28;20038;-82
2022/10/22 00:12:35;;;;;;;7.43;5.18;;;12.60;99.90;;;;;;4984645;28;20049;-82
2022/10/22 00:15:01;;;;;;;8.93;4.75;;;12.60;99.90;;;;;;4985171;28;20057;-82
2022/10/22 00:17:27;;;;;;;7.70;5.40;;;12.60;99.90;;;;;;4997508;28;20052;-82
2022/10/22 00:19:52;;;;;;;8.68;4.88;;;12.60;99.90;;;;;;5001225;28;20041;-81
2022/10/22 00:22:18;;;;;;;10.75;4.82;;;12.60;99.90;;;;;;4968574;28;20046;-81
2022/10/22 00:24:44;;;;;;;8.60;4.47;;;12.60;99.90;;;;;;4995755;28;20042;-81
2022/10/22 00:27:11;;;;;;;6.50;4.30;;;12.60;99.90;;;;;;4979028;28;20045;-82
2022/10/22 00:29:37;;;;;;;7.40;4.75;;;12.60;99.90;;;;;;5012382;28;20048;-82
2022/10/22 00:32:04;;;;;;;6.20;4.45;;;12.60;99.90;;;;;;4984182;28;20049;-82
2022/10/22 00:34:31;;;;;;;7.50;4.93;;;12.60;99.90;;;;;;5001387;28;20073;-82
2022/10/22 00:36:57;;;;;;;7.93;5.10;;;12.60;99.90;;;;;;5015397;28;20099;-82
2022/10/22 00:39:24;;;;;;;7.30;4.40;;;12.60;99.90;;;;;;4998918;28;20065;-83
2022/10/22 00:41:53;;;;;;;7.65;5.22;;;12.60;99.90;;;;;;5012129;28;20493;-82
2022/10/22 00:44:56;;;;;;;6.95;4.90;;;12.50;99.90;;;;;;5016743;28;20052;-82
2022/10/22 00:47:24;;;;;;;8.13;5.45;;;12.50;99.90;;;;;;5017287;28;20042;-83
2022/10/22 00:49:51;;;;;;;7.35;4.80;;;12.50;99.90;;;;;;5012678;28;20760;-82
2022/10/22 00:52:17;;;;;;;8.80;5.03;;;12.50;99.90;;;;;;5032376;28;20245;-82
2022/10/22 00:54:43;;;;;;;6.15;4.75;;;12.50;99.90;;;;;;5011566;28;20502;-82
2022/10/22 00:57:09;;;;;;;7.18;4.45;;;12.50;99.90;;;;;;4996530;28;20050;-82
2022/10/22 00:59:37;;;;;;;9.38;4.63;;;12.50;99.90;;;;;;4999878;28;20055;-82
2022/10/22 01:02:03;;;;;;;6.72;4.75;;;12.40;99.90;;;;;;4994248;28;20191;-83
2022/10/22 01:04:28;;;;;;;6.85;5.10;;;12.50;99.90;;;;;;5000007;28;20403;-82
2022/10/22 01:06:54;;;;;;;6.63;4.97;;;12.50;99.90;;;;;;4993634;28;20046;-82
2022/10/22 01:09:31;;;;;;;8.18;5.07;;;12.50;99.90;;;;;;5012607;28;20071;-82
2022/10/22 01:12:03;;;;;;;8.80;4.28;;;12.50;99.90;;;;;;5009442;28;20597;-82
2022/10/22 01:15:16;;;;;;;7.95;4.90;;;12.50;99.90;;;;;;4994477;28;20049;-82
2022/10/22 01:17:54;;;;;;;8.75;4.72;;;12.60;99.90;;;;;;5012512;28;20526;-82
2022/10/22 01:21:04;;;;;;;6.85;4.50;;;12.60;99.90;;;;;;5010460;28;20057;-82
2022/10/22 01:23:37;;;;;;;7.88;4.93;;;12.60;99.90;;;;;;4983443;28;20050;-82
2022/10/22 01:26:21;;;;;;;5.80;4.20;;;12.70;99.90;;;;;;4993274;28;20041;-82
2022/10/22 01:29:03;;;;;;;8.10;4.70;;;12.70;99.90;;;;;;4997804;28;20049;-82
2022/10/22 01:31:34;;;;;;;7.05;4.57;;;12.70;99.90;;;;;;5012481;28;20114;-82
2022/10/22 01:34:01;;;;;;;7.90;4.60;;;12.70;99.90;;;;;;4992304;28;20621;-82
2022/10/22 01:36:30;;;;;;;5.72;4.60;;;12.80;99.90;;;;;;5011128;28;20049;-82
2022/10/22 01:38:59;;;;;;;7.13;4.43;;;12.80;99.90;;;;;;4996924;28;20821;-83
2022/10/22 01:41:30;;;;;;;9.27;4.97;;;12.80;99.90;;;;;;5013736;28;20331;-83
2022/10/22 01:43:55;;;;;;;6.45;4.10;;;12.80;99.90;;;;;;5010336;28;20041;-82
2022/10/22 01:46:24;;;;;;;6.90;4.32;;;12.80;99.90;;;;;;4995193;28;20091;-82
2022/10/22 01:48:49;;;;;;;8.02;4.80;;;12.80;99.90;;;;;;5013005;28;20084;-82
2022/10/22 01:51:37;;;;;;;7.70;4.65;;;12.80;99.90;;;;;;4992555;28;20128;-82
2022/10/22 01:54:11;;;;;;;7.50;4.75;;;12.80;99.90;;;;;;5005991;28;20045;-82
2022/10/22 01:57:18;;;;;;;7.38;4.38;;;12.90;99.90;;;;;;5009154;28;20097;-82
2022/10/22 01:59:57;;;;;;;6.30;4.25;;;12.90;99.90;;;;;;5008513;28;20068;-82
2022/10/22 02:03:17;;;;;;;7.28;4.53;;;12.90;99.90;;;;;;5023425;28;20045;-82
2022/10/22 02:05:54;;;;;;;8.38;4.93;;;12.90;99.90;;;;;;5006458;28;20060;-82
2022/10/22 02:08:24;;;;;;;8.02;4.88;;;13.00;99.90;;;;;;5010941;28;20053;-83
2022/10/22 02:10:51;;;;;;;8.15;4.88;;;13.00;99.90;;;;;;5011220;28;20446;-83
2022/10/22 02:13:58;;;;;;;7.72;4.47;;;13.00;99.90;;;;;;4983618;28;20046;-83
2022/10/22 02:16:33;;;;;;;8.73;4.22;;;13.00;99.90;;;;;;4990946;28;20053;-83
2022/10/22 02:19:02;;;;;;;11.55;4.38;;;13.00;99.90;;;;;;5025840;28;20413;-83
2022/10/22 02:21:29;;;;;;;8.65;4.53;;;13.00;99.90;;;;;;5018199;28;20395;-83
2022/10/22 02:23:55;;;;;;;8.00;4.00;;;13.10;99.90;;;;;;5013802;28;20057;-82
2022/10/22 02:26:30;;;;;;;9.60;4.50;;;13.10;99.90;;;;;;4973196;28;20154;-82
2022/10/22 02:29:21;;;;;;;7.80;4.43;;;13.10;99.90;;;;;;5016235;28;20043;-82
2022/10/22 02:31:49;;;;;;;8.60;4.63;;;13.10;99.90;;;;;;5018095;28;20049;-82
2022/10/22 02:34:20;;;;;;;8.70;4.32;;;13.20;99.90;;;;;;5003350;28;20052;-82
2022/10/22 02:36:47;;;;;;;8.60;4.32;;;13.20;99.90;;;;;;5004639;28;21021;-83
2022/10/22 02:39:14;;;;;;;6.03;3.78;;;13.20;99.90;;;;;;4997217;28;20061;-82
2022/10/22 02:41:40;;;;;;;9.70;4.13;;;13.20;99.90;;;;;;4998552;28;20534;-82
2022/10/22 02:44:09;;;;;;;8.75;4.32;;;13.20;99.90;;;;;;4998541;28;20045;-83
2022/10/22 02:46:35;;;;;;;6.95;4.40;;;13.30;99.90;;;;;;5001504;28;20626;-83
2022/10/22 02:49:01;;;;;;;6.35;4.00;;;13.30;99.90;;;;;;4996753;28;20106;-82
2022/10/22 02:51:27;;;;;;;7.50;4.18;;;13.30;99.90;;;;;;5015808;28;20051;-83
2022/10/22 02:53:52;;;;;;;9.57;4.40;;;13.30;99.90;;;;;;5006628;28;20056;-82
2022/10/22 02:56:18;;;;;;;7.78;4.20;;;13.30;99.90;;;;;;5003349;28;20067;-82
2022/10/22 02:58:44;;;;;;;6.55;4.07;;;13.30;99.90;;;;;;5018987;28;20081;-82
2022/10/22 03:01:09;;;;;;;9.63;4.00;;;13.30;99.90;;;;;;4992988;28;20055;-83
2022/10/22 03:03:35;;;;;;;7.45;4.55;;;13.30;99.90;;;;;;5017240;28;20049;-82
2022/10/22 03:06:01;;;;;;;9.68;3.70;;;13.40;99.90;;;;;;4986990;28;20111;-82
2022/10/22 03:08:26;;;;;;;8.68;4.30;;;13.40;99.90;;;;;;4986694;28;20078;-82
2022/10/22 03:10:52;;;;;;;7.75;4.03;;;13.40;99.90;;;;;;4998415;28;20046;-82
2022/10/22 03:13:18;;;;;;;10.68;4.35;;;13.40;99.90;;;;;;4982876;28;20049;-82
2022/10/22 03:15:44;;;;;;;5.63;3.30;;;13.30;99.90;;;;;;4987698;28;20090;-83
2022/10/22 03:18:09;;;;;;;9.02;3.55;;;13.40;99.90;;;;;;4986310;28;20141;-83
2022/10/22 03:20:35;;;;;;;5.70;3.17;;;13.40;99.90;;;;;;4997977;28;20122;-82
2022/10/22 03:23:02;;;;;;;7.88;3.53;;;13.30;99.90;;;;;;4998830;28;20045;-82
2022/10/22 03:25:29;;;;;;;7.18;3.63;;;13.40;99.90;;;;;;5015113;28;20096;-82
2022/10/22 03:28:00;;;;;;;7.57;4.07;;;13.40;99.90;;;;;;4995388;28;20131;-82
2022/10/22 03:30:26;;;;;;;8.02;3.55;;;13.40;99.90;;;;;;5015805;28;20522;-82
2022/10/22 03:32:51;;;;;;;6.20;3.35;;;13.40;99.90;;;;;;4983794;28;20045;-82
2022/10/22 03:35:17;;;;;;;5.95;3.78;;;13.40;99.90;;;;;;4999653;28;20049;-82
2022/10/22 03:37:43;;;;;;;8.07;3.92;;;13.40;99.90;;;;;;4996759;28;20476;-82
2022/10/22 03:40:10;;;;;;;8.68;3.72;;;13.10;99.90;;;;;;4998557;28;20085;-83
2022/10/22 03:42:36;;;;;;;8.18;3.95;;;13.30;99.90;;;;;;4996438;28;20245;-82
2022/10/22 03:45:01;;;;;;;7.60;4.05;;;13.30;99.90;;;;;;5001333;28;20873;-82
2022/10/22 03:47:27;;;;;;;7.70;3.90;;;13.30;99.90;;;;;;4996714;28;20045;-82
2022/10/22 03:49:53;;;;;;;9.60;4.20;;;13.30;99.90;;;;;;4996480;28;20046;-82
2022/10/22 03:52:19;;;;;;;8.82;3.42;;;13.30;99.90;;;;;;4994627;28;20499;-83
2022/10/22 03:54:44;;;;;;;8.68;3.50;;;13.30;99.90;;;;;;4997086;28;20180;-83
2022/10/22 03:57:10;;;;;;;8.45;3.45;;;13.30;99.90;;;;;;4997768;28;20052;-82
2022/10/22 03:59:42;;;;;;;8.60;3.58;;;13.30;99.90;;;;;;5012580;28;20046;-82
2022/10/22 04:02:08;;;;;;;5.93;3.58;;;13.20;99.90;;;;;;5011827;28;20054;-83
2022/10/22 04:04:35;;;;;;;8.85;3.22;;;13.20;99.90;;;;;;4994439;28;20061;-83
2022/10/22 04:07:01;;;;;;;8.80;3.33;;;13.30;99.90;;;;;;5030582;28;20486;-83
2022/10/22 04:09:29;;;;;;;10.68;3.55;;;13.30;99.90;;;;;;4996476;28;20059;-82
2022/10/22 04:11:55;;;;;;;7.10;3.15;;;13.20;99.90;;;;;;5001231;28;20050;-82
2022/10/22 04:14:20;;;;;;;7.97;3.22;;;13.30;99.90;;;;;;4998683;28;20391;-83
2022/10/22 04:16:46;;;;;;;7.25;3.03;;;13.30;99.90;;;;;;5009738;28;20195;-83
2022/10/22 04:19:12;;;;;;;5.63;2.80;;;13.30;99.90;;;;;;4978868;28;20049;-82
2022/10/22 04:21:38;;;;;;;5.80;2.97;;;13.30;99.90;;;;;;4977830;28;20490;-82
2022/10/22 04:24:03;;;;;;;7.15;2.97;;;13.30;99.90;;;;;;4995140;28;20055;-82
2022/10/22 04:26:29;;;;;;;5.32;3.05;;;13.30;99.90;;;;;;4995115;28;20423;-82
2022/10/22 04:28:55;;;;;;;5.90;2.85;;;13.30;99.90;;;;;;4997023;28;20050;-82
2022/10/22 04:31:23;;;;;;;8.55;3.30;;;13.30;99.90;;;;;;4983150;28;20041;-82
2022/10/22 04:33:54;;;;;;;6.50;3.25;;;13.30;99.90;;;;;;5012706;28;20119;-82
2022/10/22 04:36:20;;;;;;;9.50;3.30;;;13.30;99.90;;;;;;5001661;28;20489;-82
2022/10/22 04:38:50;;;;;;;7.70;3.15;;;13.30;99.90;;;;;;4999945;28;20089;-82
2022/10/22 04:41:22;;;;;;;4.88;2.67;;;13.30;99.90;;;;;;5012764;28;20052;-82
2022/10/22 04:43:48;;;;;;;7.03;2.72;;;13.30;99.90;;;;;;5012334;28;20486;-82
2022/10/22 04:46:16;;;;;;;9.05;3.33;;;13.30;99.90;;;;;;4996409;28;20053;-82
2022/10/22 04:48:42;;;;;;;6.03;2.90;;;13.30;99.90;;;;;;5015975;28;20060;-82
2022/10/22 04:51:10;;;;;;;9.55;3.40;;;13.40;99.90;;;;;;5011055;28;20042;-82
2022/10/22 04:53:36;;;;;;;8.45;2.75;;;13.40;99.90;;;;;;5013063;28;20049;-81
2022/10/22 04:56:19;;;;;;;7.03;2.65;;;13.40;99.90;;;;;;5010601;28;20053;-82
2022/10/22 04:58:56;;;;;;;7.18;3.00;;;13.40;99.90;;;;;;5012663;28;20049;-82
2022/10/22 05:01:28;;;;;;;8.18;2.88;;;13.40;99.90;;;;;;4999309;28;20041;-82
2022/10/22 05:03:57;;;;;;;8.82;3.17;;;13.40;99.90;;;;;;5011122;28;20048;-83
2022/10/22 05:06:23;;;;;;;9.02;3.35;;;13.40;99.90;;;;;;5012071;28;20042;-82
2022/10/22 05:08:54;;;;;;;9.35;2.97;;;13.40;99.90;;;;;;5012095;28;20413;-82
2022/10/22 05:11:22;;;;;;;7.30;3.03;;;13.40;99.90;;;;;;5015455;28;20053;-82
2022/10/22 05:13:48;;;;;;;9.10;3.35;;;13.40;99.90;;;;;;5011024;28;20054;-82
2022/10/22 05:16:14;;;;;;;12.43;2.83;;;13.40;99.90;;;;;;4981782;28;20064;-83
2022/10/22 05:18:43;;;;;;;6.68;3.20;;;13.40;99.90;;;;;;4996515;28;20046;-82
2022/10/22 05:21:11;;;;;;;9.25;2.88;;;13.50;99.90;;;;;;5007540;28;20132;-82
2022/10/22 05:23:37;;;;;;;8.57;3.03;;;13.50;99.90;;;;;;4993042;28;20085;-83
2022/10/22 05:26:05;;;;;;;7.88;2.83;;;13.50;99.90;;;;;;5012859;28;20077;-82
2022/10/22 05:28:32;;;;;;;11.18;2.92;;;13.50;99.90;;;;;;5014208;28;21131;-82
2022/10/22 05:30:59;;;;;;;10.57;3.80;;;13.50;99.90;;;;;;4981660;28;20137;-82
2022/10/22 05:33:30;;;;;;;6.82;3.25;;;13.50;99.90;;;;;;4966433;28;20064;-82
2022/10/22 05:35:56;;;;;;;7.97;3.50;;;13.50;99.90;;;;;;5013411;28;20099;-82
2022/10/22 05:38:22;;;;;;;4.85;2.60;;;13.50;99.90;;;;;;5009631;28;20053;-82
2022/10/22 05:40:59;;;;;;;5.78;2.97;;;13.50;99.90;;;;;;4998014;28;20040;-82
2022/10/22 05:43:25;;;;;;;8.60;2.88;;;13.50;99.90;;;;;;5009775;28;20479;-82
2022/10/22 05:45:51;;;;;;;7.70;3.15;;;13.50;99.90;;;;;;4995733;28;20053;-83
2022/10/22 05:48:16;;;;;;;10.10;3.22;;;13.50;99.90;;;;;;4983381;28;20045;-82
2022/10/22 05:50:45;;;;;;;7.70;2.85;;;13.50;99.90;;;;;;4977514;28;20128;-82
2022/10/22 05:53:10;;;;;;;9.38;3.22;;;13.50;99.90;;;;;;5011199;28;20155;-82
2022/10/22 05:55:39;;;;;;;11.30;3.20;;;13.50;99.90;;;;;;4994974;28;20068;-82
2022/10/22 05:58:05;;;;;;;7.07;3.00;;;13.50;99.90;;;;;;4996840;28;20046;-84
2022/10/22 06:00:33;;;;;;;7.28;3.13;;;14.50;99.90;;;;;;4997367;28;20132;-84
2022/10/22 06:02:59;;;;;;;9.65;3.30;;;13.50;99.90;;;;;;5000121;28;20053;-83
2022/10/22 06:05:25;;;;;;;6.55;2.65;;;13.50;99.90;;;;;;5011673;28;20055;-83
2022/10/22 06:07:51;;;;;;;7.15;2.95;;;13.50;99.90;;;;;;5027940;28;20045;-83
2022/10/22 06:10:18;;;;;;;7.65;2.97;;;13.40;99.90;;;;;;4999419;28;20107;-83
2022/10/22 06:12:48;;;;;;;7.30;2.95;;;13.40;99.90;;;;;;5016283;28;20045;-84
2022/10/22 06:15:19;;;;;;;8.07;3.05;;;13.40;99.90;;;;;;5013034;28;20387;-85
2022/10/22 06:17:45;;;;;;;8.95;2.85;;;13.40;99.90;;;;;;4999486;28;20117;-83
2022/10/22 06:20:11;;;;;;;10.32;3.03;;;13.40;99.90;;;;;;5011209;28;20049;-84
2022/10/22 06:22:37;;;;;;;6.43;3.03;;;13.40;99.90;;;;;;5012330;28;20052;-84
2022/10/22 06:25:04;;;;;;;7.20;3.00;;;13.40;99.90;;;;;;5010824;28;20410;-82
2022/10/22 06:27:30;;;;;;;7.68;3.20;;;14.30;99.90;;;;;;4995971;28;20057;-81
2022/10/22 06:29:56;;;;;;;7.60;3.03;;;13.30;99.90;;;;;;4995214;28;20037;-80
2022/10/22 06:32:22;;;;;;;7.47;2.78;;;13.30;99.90;;;;;;4991097;28;21058;-80
2022/10/22 06:34:49;;;;;;;6.68;3.15;;;13.30;99.90;;;;;;5008421;28;20045;-83
2022/10/22 06:37:15;;;;;;;8.50;2.97;;;13.30;99.90;;;;;;4983077;28;20069;-82
2022/10/22 06:39:41;;;;;;;6.30;2.67;;;13.30;99.90;;;;;;4993353;28;20059;-84
2022/10/22 06:42:07;;;;;;;9.77;3.35;;;13.30;99.90;;;;;;4983803;28;20062;-82
2022/10/22 06:44:32;;;;;;;7.78;3.28;;;13.30;99.90;;;;;;4968012;28;20120;-83
2022/10/22 06:46:58;;;;;;;5.57;3.05;;;13.20;99.90;;;;;;5010016;28;20522;-81
2022/10/22 06:49:24;;;;;;;6.97;2.72;;;13.30;99.90;;;;;;4997898;28;20096;-82
2022/10/22 06:51:51;;;;;;;9.77;3.28;;;13.20;99.90;;;;;;5010770;28;20042;-82
2022/10/22 06:54:17;;;;;;;7.63;3.35;;;13.30;99.90;;;;;;5017787;28;20060;-83
2022/10/22 06:56:43;;;;;;;7.55;3.38;;;13.30;99.90;;;;;;5011721;28;20052;-82
2022/10/22 06:59:09;;;;;;;9.10;3.55;;;13.30;99.90;;;;;;4994291;28;20038;-81
2022/10/22 07:01:35;;;;;;;8.85;3.00;;;13.20;99.90;;;;;;5013852;28;20049;-82
2022/10/22 07:04:02;;;;;;;6.68;2.83;;;13.20;99.90;;;;;;5020849;28;20486;-82
2022/10/22 07:06:28;;;;;;;5.45;2.88;;;13.30;99.90;;;;;;5002193;28;20061;-82
2022/10/22 07:08:55;;;;;;;10.07;3.28;;;13.20;99.90;;;;;;5012043;28;20076;-81
2022/10/22 07:11:22;;;;;;;10.65;3.25;;;13.20;99.90;;;;;;5013292;28;20252;-81
2022/10/22 07:13:49;;;;;;;5.38;3.10;;;13.30;99.90;;;;;;4999011;28;20041;-82
2022/10/22 07:16:16;;;;;;;6.28;2.85;;;13.30;99.90;;;;;;5000499;28;20527;-82
2022/10/22 07:18:43;;;;;;;8.18;3.08;;;13.30;99.90;;;;;;4997422;28;20088;-81
2022/10/22 07:21:10;;;;;;;7.88;3.47;;;13.30;99.90;;;;;;5031173;28;20308;-81
2022/10/22 07:23:36;;;;;;;8.25;3.22;;;13.30;99.90;;;;;;5013489;28;20426;-82
2022/10/22 07:26:03;;;;;;;7.85;3.40;;;13.30;99.90;;;;;;4989369;28;20053;-82
2022/10/22 07:28:29;;;;;;;9.88;3.90;;;13.40;99.90;;;;;;5002969;28;20091;-82
2022/10/22 07:30:55;;;;;;;8.95;3.17;;;13.40;99.90;;;;;;5000626;28;20449;-80
2022/10/22 07:33:21;;;;;;;11.70;3.65;;;13.40;99.90;;;;;;5011971;28;20050;-82
2022/10/22 07:35:46;;;;;;;7.47;3.13;;;13.40;99.90;;;;;;5002533;28;20175;-81
2022/10/22 07:38:12;;;;;;;12.82;3.47;;;13.40;99.90;;;;;;4997713;28;20130;-81
2022/10/22 07:40:38;;;;;;;10.68;3.72;;;13.40;99.90;;;;;;4987449;28;20058;-80
2022/10/22 07:43:04;;;;;;;6.15;3.00;;;13.50;99.90;;;;;;5001581;28;20080;-81
2022/10/22 07:45:30;;;;;;;8.35;2.90;;;12.80;99.90;;;;;;5002110;28;20652;-88
2022/10/22 07:47:55;;;;;;;8.18;3.10;;;13.60;99.90;;;;;;4986752;28;20069;-82
2022/10/22 07:50:22;;;;;;;8.80;4.05;;;13.60;99.90;;;;;;4986249;28;20045;-80
2022/10/22 07:52:47;;;;;;;11.38;3.40;;;13.70;99.90;;;;;;5000576;28;20064;-81
2022/10/22 07:55:13;;;;;;;11.85;3.80;;;13.70;99.90;;;;;;4990681;28;20045;-82
2022/10/22 07:57:39;;;;;;;7.22;3.25;;;13.80;99.90;;;;;;4999634;28;20057;-81
2022/10/22 08:00:07;;;;;;;11.55;3.38;;;13.90;99.90;;;;;;5003628;28;20081;-81
2022/10/22 08:02:33;;;;;;;7.22;3.38;;;14.00;99.90;;;;;;5001564;28;20042;-81
2022/10/22 08:04:58;;;;;;;7.55;3.50;;;14.00;99.90;;;;;;5018811;28;20407;-80
2022/10/22 08:07:25;;;;;;;11.77;3.60;;;14.10;99.90;;;;;;5000807;28;20057;-80
2022/10/22 08:09:50;;;;;;;13.52;4.40;;;14.20;99.90;;;;;;5017555;28;20045;-81
2022/10/22 08:12:16;;;;;;;8.07;3.45;;;14.30;99.90;;;;;;5005498;28;20628;-82
2022/10/22 08:14:42;;;;;;;12.82;3.40;;;14.40;99.90;;;;;;5005231;28;20688;-80
2022/10/22 08:17:08;;;;;;;7.70;2.90;;;14.50;99.90;;;;;;5015345;28;20042;-81
2022/10/22 08:19:34;;;;;;;7.22;3.08;;;14.50;99.90;;;;;;5011721;28;20045;-81
2022/10/22 08:22:00;;;;;;;9.93;3.25;;;14.60;99.90;;;;;;4998441;28;20125;-80
2022/10/22 08:24:26;;;;;;;10.00;3.42;;;14.60;99.90;;;;;;4998871;28;20049;-81
2022/10/22 08:26:54;;;;;;;8.32;2.88;;;14.60;99.90;;;;;;5015417;28;20551;-80
2022/10/22 08:29:22;;;;;;;8.88;3.22;;;14.70;99.90;;;;;;4997586;28;20147;-81
2022/10/22 08:31:48;;;;;;;9.13;3.15;;;14.70;99.90;;;;;;5012899;28;20057;-81
2022/10/22 08:34:14;;;;;;;10.10;3.00;;;14.80;99.90;;;;;;5000160;28;20037;-81
2022/10/22 08:36:40;;;;;;;7.82;3.30;;;14.80;99.90;;;;;;5013565;28;20446;-81
2022/10/22 08:39:08;;;;;;;7.60;2.58;;;14.80;99.90;;;;;;5001942;28;20065;-89
2022/10/22 08:41:58;;;;;;;6.55;2.70;;;14.80;99.90;;;;;;5003240;28;20099;-81
2022/10/22 08:44:27;;;;;;;8.02;3.08;;;14.80;99.90;;;;;;5004458;28;20128;-81
2022/10/22 08:47:17;;;;;;;7.55;2.78;;;14.80;99.90;;;;;;5021459;28;20041;-81
2022/10/22 08:49:43;;;;;;;9.27;3.42;;;14.90;99.90;;;;;;5017814;28;20396;-81
2022/10/22 08:52:14;;;;;;;7.72;3.22;;;14.90;99.90;;;;;;5008365;28;20077;-81
2022/10/22 08:54:53;;;;;;;6.35;2.80;;;15.00;99.90;;;;;;5005324;28;20060;-81
2022/10/22 08:57:31;;;;;;;12.30;3.47;;;15.00;99.90;;;;;;5023206;28;20080;-81
2022/10/22 09:00:11;;;;;;;7.93;2.63;;;15.10;99.90;;;;;;5006688;28;20073;-82
2022/10/22 09:02:50;;;;;;;9.73;2.80;;;15.20;99.90;;;;;;5022671;28;20057;-80
2022/10/22 09:05:31;;;;;;;12.02;3.28;;;15.20;99.90;;;;;;5015969;28;20049;-81
2022/10/22 09:07:57;;;;;;;6.03;2.60;;;15.20;99.90;;;;;;5000817;28;20056;-81
2022/10/22 09:10:35;;;;;;;8.85;3.17;;;15.30;99.90;;;;;;4987941;28;20049;-81
2022/10/22 09:13:01;;;;;;;8.75;2.80;;;15.30;99.90;;;;;;5016286;28;20052;-82
2022/10/22 09:15:30;;;;;;;10.18;3.13;;;15.30;99.90;;;;;;4986277;28;20604;-88
2022/10/22 09:18:09;;;;;;;7.75;3.20;;;15.40;99.90;;;;;;5001646;28;20045;-82
2022/10/22 09:20:48;;;;;;;9.88;3.17;;;15.50;99.90;;;;;;5015727;28;20148;-81
2022/10/22 09:23:19;;;;;;;11.60;3.88;;;15.50;99.90;;;;;;5014834;28;20577;-82
2022/10/22 09:25:47;;;;;;;6.10;3.05;;;15.50;99.90;;;;;;5017278;28;20064;-82
2022/10/22 09:28:14;;;;;;;8.60;3.42;;;15.50;99.90;;;;;;5004427;28;20129;-81
2022/10/22 09:30:42;;;;;;;9.52;3.45;;;15.60;99.90;;;;;;4989634;28;20041;-81
2022/10/22 09:33:24;;;;;;;9.15;3.83;;;15.60;99.90;;;;;;5017143;28;20060;-82
2022/10/22 09:35:54;;;;;;;7.82;3.10;;;15.60;99.90;;;;;;5002686;28;20107;-82
2022/10/22 09:38:24;;;;;;;8.75;3.25;;;15.60;99.90;;;;;;5021689;28;20107;-81
2022/10/22 09:40:54;;;;;;;10.95;3.95;;;15.70;99.90;;;;;;5014641;28;20049;-82
2022/10/22 09:43:19;;;;;;;10.63;3.55;;;15.80;99.90;;;;;;4999508;28;20053;-81
2022/10/22 09:45:47;;;;;;;14.10;4.05;;;15.80;99.90;;;;;;4985065;28;20060;-81
2022/10/22 09:48:26;;;;;;;9.18;3.45;;;15.90;99.90;;;;;;5007531;28;20177;-81
2022/10/22 09:51:09;;;;;;;11.40;3.60;;;16.10;99.90;;;;;;5006420;28;20051;-81
2022/10/22 09:53:40;;;;;;;10.98;3.60;;;16.00;99.90;;;;;;5004146;28;20049;-82
2022/10/22 09:56:20;;;;;;;12.50;3.63;;;16.10;99.90;;;;;;5018510;28;20517;-81
2022/10/22 09:58:49;;;;;;;8.90;3.78;;;16.20;99.90;;;;;;5021208;28;20046;-81
2022/10/22 10:01:25;;;;;;;10.05;3.38;;;16.30;99.90;;;;;;5022168;28;20049;-82
2022/10/22 10:03:51;;;;;;;10.32;3.80;;;16.30;99.90;;;;;;5001819;28;20115;-82
2022/10/22 10:06:19;;;;;;;8.23;3.53;;;16.40;99.90;;;;;;5015687;28;20053;-81
2022/10/22 10:08:45;;;;;;;6.82;3.05;;;16.30;99.90;;;;;;5006850;28;20053;-82
2022/10/22 10:11:28;;;;;;;12.23;3.63;;;16.30;99.90;;;;;;5020590;28;20045;-82
2022/10/22 10:14:02;;;;;;;7.97;3.17;;;16.30;99.90;;;;;;5009962;28;20096;-81
2022/10/22 10:16:31;;;;;;;8.55;2.78;;;16.30;99.90;;;;;;5019098;28;20049;-79
2022/10/22 10:19:06;;;;;;;8.95;2.85;;;16.20;99.90;;;;;;5020061;28;20080;-81
2022/10/22 10:21:48;;;;;;;9.65;3.03;;;16.20;99.90;;;;;;5016546;28;20057;-81
2022/10/22 10:24:45;;;;;;;10.32;3.05;;;16.10;99.90;;;;;;5018695;28;20057;-82
2022/10/22 10:27:34;;;;;;;10.25;3.60;;;16.00;99.90;;;;;;5014725;28;20054;-83
2022/10/22 10:30:20;;;;;;;5.25;2.58;;;16.00;99.90;;;;;;5013244;28;20088;-83
2022/10/22 10:32:55;;;;;;;8.07;3.22;;;16.00;99.90;;;;;;5014546;28;21108;-83
2022/10/22 10:35:42;;;;;;;6.18;2.70;;;16.10;99.90;;;;;;5003348;28;20056;-83
2022/10/22 10:38:13;;;;;;;5.97;3.25;;;16.10;99.90;;;;;;5003849;28;20057;-82
2022/10/22 10:41:02;;;;;;;6.50;3.20;;;16.10;99.90;;;;;;5004680;28;20061;-83
2022/10/22 10:43:50;;;;;;;6.18;2.60;;;16.10;99.90;;;;;;5003534;28;20049;-81
2022/10/22 10:46:44;;;;;;;5.25;2.55;;;16.00;99.90;;;;;;5032493;28;20056;-82
2022/10/22 10:49:18;;;;;;;6.00;2.65;;;16.10;99.90;;;;;;5022669;28;20065;-80
2022/10/22 10:52:17;;;;;;;5.32;2.85;;;16.10;99.90;;;;;;5016978;28;20084;-81
2022/10/22 10:55:14;;;;;;;7.70;2.78;;;16.20;99.90;;;;;;5009474;28;20045;-83
2022/10/22 10:58:35;;;;;;;6.90;2.40;;;16.30;99.90;;;;;;5020657;28;20348;-83
2022/10/22 11:01:14;;;;;;;7.43;2.42;;;16.40;99.90;;;;;;5023532;28;20132;-84
2022/10/22 11:03:58;;;;;;;6.07;2.30;;;16.30;99.90;;;;;;4988817;28;20053;-83
2022/10/22 11:06:25;;;;;;;4.18;1.65;;;16.20;99.90;;;;;;5017676;28;20915;-82
2022/10/22 11:08:58;;;;;;;6.05;2.03;;;16.10;99.90;;;;;;5005996;28;20045;-81
2022/10/22 11:11:41;;;;;;;7.20;1.95;;;16.10;99.90;;;;;;5003938;28;20170;-83
2022/10/22 11:14:14;;;;;;;8.25;1.80;;;16.00;99.90;;;;;;5007433;28;20080;-80
2022/10/22 11:16:49;;;;;;;5.63;1.73;;;16.00;99.90;;;;;;5018722;28;20734;-80
2022/10/22 11:19:22;;;;;;;8.20;1.60;;;15.90;99.90;;;;;;5001664;28;20173;-80
2022/10/22 11:21:53;;;;;;;5.72;1.50;;;15.90;99.90;;;;;;5006746;28;20059;-81
2022/10/22 11:24:26;;;;;;;6.97;1.67;;;15.90;99.90;;;;;;5010736;28;20061;-88
2022/10/22 11:27:03;;;;;;;4.68;1.40;;;15.80;99.90;;;;;;5012433;28;20045;-89
2022/10/22 11:29:41;;;;;;;10.15;1.55;;;15.90;99.90;;;;;;5027726;28;20053;-90
2022/10/22 11:32:25;;;;;;;6.18;1.48;;;16.00;99.90;;;;;;5029855;28;20064;-90
2022/10/22 11:34:58;;;;;;;7.35;1.58;;;16.10;99.90;;;;;;5018106;28;20503;-90
2022/10/22 11:37:33;;;;;;;8.45;1.38;;;16.10;99.90;;;;;;5012568;28;20132;-88
2022/10/22 11:40:15;;;;;;;8.23;1.55;;;16.10;99.90;;;;;;5028035;28;20077;-88
2022/10/22 11:43:14;;;;;;;8.82;1.98;;;16.20;99.90;;;;;;5014454;28;20062;-88
2022/10/22 11:45:52;;;;;;;8.75;1.63;;;16.30;99.90;;;;;;5039388;28;20053;-89
2022/10/22 11:48:27;;;;;;;6.60;1.52;;;16.30;99.90;;;;;;5019880;28;20058;-88
2022/10/22 11:50:56;;;;;;;6.53;1.40;;;16.00;99.90;;;;;;5009337;28;20049;-88
2022/10/22 11:53:35;;;;;;;;;;;;;;;;;;;;;
2022/10/22 11:56:09;;;;;;;6.65;1.73;;;16.40;99.90;;;;;;5028378;28;20056;-88
2022/10/22 11:58:38;;;;;;;7.07;1.65;;;16.50;99.90;;;;;;5008974;28;20136;-89
2022/10/22 12:01:06;;;;;;;6.03;1.42;;;16.50;99.90;;;;;;5024828;28;20045;-89
2022/10/22 12:03:33;;;;;;;7.78;1.52;;;15.60;99.90;;;;;;5022684;28;20042;-88
2022/10/22 12:06:11;;;;;;;8.30;1.58;;;16.40;99.90;;;;;;5004805;28;20090;-89
2022/10/22 12:08:49;;;;;;;7.07;2.17;;;16.40;99.90;;;;;;5004717;28;20449;-89
2022/10/22 12:11:36;;;;;;;8.75;2.20;;;16.40;99.90;;;;;;5035041;28;20045;-88
2022/10/22 12:14:28;;;;;;;11.82;2.25;;;16.00;99.90;;;;;;5010044;28;20057;-90
2022/10/22 12:16:58;;;;;;;6.82;1.38;;;16.50;99.90;;;;;;5010712;28;20644;-90
2022/10/22 12:19:37;;;;;;;8.73;1.70;;;16.50;99.90;;;;;;5025433;28;20041;-87
2022/10/22 12:22:06;;;;;;;6.85;1.38;;;16.00;99.90;;;;;;5011744;28;20128;-88
2022/10/22 12:24:56;;;;;;;9.63;2.03;;;15.70;99.90;;;;;;5024908;28;20056;-88
2022/10/22 12:27:26;;;;;;;13.60;2.50;;;15.90;99.90;;;;;;5010094;28;20132;-91
2022/10/22 12:29:58;;;;;;;9.85;1.77;;;16.90;99.90;;;;;;5010945;28;20076;-90
2022/10/22 12:32:33;;;;;;;8.93;1.80;;;17.00;99.90;;;;;;5025139;28;20049;-91
2022/10/22 12:35:09;;;;;;;9.00;1.75;;;16.40;99.90;;;;;;5027036;28;20056;-91
2022/10/22 12:37:39;;;;;;;9.25;2.05;;;17.20;99.90;;;;;;5030418;28;20132;-89
2022/10/22 12:40:21;;;;;;;9.18;1.98;;;17.20;99.90;;;;;;5023178;28;20065;-92
2022/10/22 12:42:56;;;;;;;12.43;2.03;;;17.50;99.90;;;;;;5022958;28;20169;-90
2022/10/22 12:45:38;;;;;;;;;;;;;;;;;;;;;
2022/10/22 12:48:23;;;;;;;8.80;2.13;;;17.50;99.90;;;;;;5025746;28;20050;-90
2022/10/22 12:50:55;;;;;;;8.73;1.60;;;17.40;99.90;;;;;;5012354;28;20041;-91
2022/10/22 12:53:30;;;;;;;8.95;2.20;;;17.20;99.90;;;;;;5031661;28;20395;-89
2022/10/22 12:56:07;;;;;;;8.13;1.88;;;17.20;99.90;;;;;;5031010;28;20045;-90
2022/10/22 12:58:55;;;;;;;9.73;1.70;;;17.20;99.90;;;;;;5029060;28;20073;-90
2022/10/22 13:01:27;;;;;;;9.77;2.13;;;17.60;99.90;;;;;;5016013;28;20045;-90
2022/10/22 13:04:21;;;;;;;4.45;1.30;;;18.20;99.90;;;;;;5015201;28;20046;-91
2022/10/22 13:06:53;;;;;;;4.50;1.40;;;18.70;99.90;;;;;;5025037;28;20073;-91
2022/10/22 13:09:57;;;;;;;6.65;1.63;;;19.40;99.90;;;;;;5013988;28;20085;-91